SAWH/USH METAR and TAF weather

Enter ICAO airport designator
Station Type Date Time Source
SAWH METAR 2020/01/20 22:00 UTC NOAA

SAWH 202200Z 00000KT 9999 SCT040 BKN100 11/07 Q1005


Station Type Date Time Source
SAWH Decoded METAR 2020/01/20 22:00 UTC NOAA

Ushuaia Aerodrome, Argentina (SAWH) 54-48S 068-19W 14M
Jan 20, 2020 - 05:00 PM EST / 2020.01.20 2200 UTC
Wind: Calm:0
Visibility: greater than 7 mile(s):0
Sky conditions: mostly cloudy
Temperature: 51 F (11 C)
Dew Point: 44 F (7 C)
Relative Humidity: 76%
Pressure (altimeter): 29.68 in. Hg (1005 hPa)
ob: SAWH 202200Z 00000KT 9999 SCT040 BKN100 11/07 Q1005
cycle: 22

Station Type Date Time Source
SAWH TAF 2020/01/20 18:06 UTC NOAA

TAF SAWH 201700Z 2018/2118 23025KT 9999 BKN048 TX13/2019Z TN07/2110Z
BECMG 2021/2023 VRB10KT PROB40
TEMPO 2100/2112 -RADZ 9000 RA BKN030 BKN040
BECMG 2112/2113 25025KT NSW SCT035 SCT070

Example: see airport list